createdAt,value
2019-02-02T00:02:16.454Z,42.10
2019-02-02T00:04:45.344Z,39.90
2019-02-02T00:07:14.375Z,41.17
2019-02-02T00:09:43.217Z,38.30
2019-02-02T00:12:12.090Z,39.13
2019-02-02T00:14:40.899Z,34.47
2019-02-02T00:17:10.124Z,31.35
2019-02-02T00:19:38.998Z,36.57
2019-02-02T00:22:07.948Z,39.90
2019-02-02T00:24:36.889Z,41.27
2019-02-02T00:27:06.405Z,34.87
2019-02-02T00:29:35.286Z,40.97
2019-02-02T00:32:04.658Z,37.53
2019-02-02T00:34:33.592Z,43.00
2019-02-02T00:37:02.551Z,33.60
2019-02-02T00:39:31.347Z,36.70
2019-02-02T00:42:00.316Z,36.60
2019-02-02T00:44:29.175Z,38.90
2019-02-02T00:46:58.794Z,35.23
2019-02-02T00:49:27.643Z,38.00
2019-02-02T00:51:56.517Z,41.97
2019-02-02T00:54:25.464Z,37.53
2019-02-02T00:56:54.332Z,41.60
2019-02-02T00:59:24.403Z,37.80
2019-02-02T01:01:53.210Z,37.57
2019-02-02T01:04:22.146Z,40.00
2019-02-02T01:06:51.034Z,38.23
2019-02-02T01:09:22.907Z,35.93
2019-02-02T01:11:52.047Z,37.13
2019-02-02T01:14:21.068Z,30.43
2019-02-02T01:16:49.953Z,35.97
2019-02-02T01:19:18.973Z,36.60
2019-02-02T01:21:47.837Z,34.53
2019-02-02T01:24:16.780Z,34.43
2019-02-02T01:26:45.842Z,33.80
2019-02-02T01:29:14.777Z,35.27
2019-02-02T01:31:43.724Z,33.03
2019-02-02T01:34:13.092Z,30.15
2019-02-02T01:36:41.968Z,34.90
2019-02-02T01:39:10.893Z,34.30
2019-02-02T01:41:39.840Z,37.77
2019-02-02T01:44:08.882Z,35.03
2019-02-02T01:46:37.768Z,37.40
2019-02-02T01:49:06.660Z,33.17
2019-02-02T01:51:35.465Z,33.87
2019-02-02T01:54:04.425Z,34.63
2019-02-02T01:56:33.340Z,43.00
2019-02-02T01:59:02.208Z,35.60
2019-02-02T02:01:31.138Z,36.50
2019-02-02T02:03:59.938Z,35.70
2019-02-02T02:06:28.811Z,38.50
2019-02-02T02:08:57.665Z,33.63
2019-02-02T02:11:26.470Z,33.07
2019-02-02T02:13:55.364Z,35.60
2019-02-02T02:16:24.360Z,26.53
2019-02-02T02:18:53.142Z,30.07
2019-02-02T02:21:22.009Z,34.00
2019-02-02T02:23:50.812Z,35.50
2019-02-02T02:26:19.657Z,32.03
2019-02-02T02:28:48.601Z,33.45
2019-02-02T02:31:17.467Z,35.95
2019-02-02T02:33:46.268Z,32.90
2019-02-02T02:36:15.090Z,32.23
2019-02-02T02:38:45.021Z,34.08
2019-02-02T02:41:14.967Z,32.75
2019-02-02T02:43:44.952Z,35.13
2019-02-02T02:46:13.905Z,36.80
2019-02-02T02:48:42.787Z,39.25
2019-02-02T02:51:11.579Z,34.30
2019-02-02T02:53:40.469Z,36.47
2019-02-02T02:56:09.405Z,32.80
2019-02-02T02:58:41.637Z,33.43
2019-02-02T03:01:08.880Z,30.50
2019-02-02T03:03:37.701Z,30.07
2019-02-02T03:06:06.635Z,33.13
2019-02-02T03:08:35.501Z,27.83
2019-02-02T03:11:04.546Z,27.90
2019-02-02T03:13:33.433Z,33.15
2019-02-02T03:16:02.302Z,30.07
2019-02-02T03:18:31.366Z,30.10
2019-02-02T03:21:00.520Z,29.90
2019-02-02T03:23:29.304Z,32.10
2019-02-02T03:25:58.156Z,32.50
2019-02-02T03:28:26.958Z,30.13
2019-02-02T03:30:55.846Z,27.62
2019-02-02T03:33:24.707Z,27.60
2019-02-02T03:35:53.706Z,30.47
2019-02-02T03:38:22.506Z,28.10
2019-02-02T03:40:51.313Z,30.10
2019-02-02T03:43:20.110Z,28.80
2019-02-02T03:45:48.905Z,30.90
2019-02-02T03:48:17.883Z,29.57
2019-02-02T03:50:46.818Z,29.73
2019-02-02T03:53:16.580Z,30.43
2019-02-02T03:55:45.644Z,31.48
2019-02-02T03:58:14.464Z,30.85
2019-02-02T04:00:43.411Z,29.57
2019-02-02T04:03:12.399Z,28.17
2019-02-02T04:05:41.189Z,29.13
2019-02-02T04:08:10.160Z,31.07
2019-02-02T04:10:39.086Z,30.80
2019-02-02T04:13:08.041Z,31.15
2019-02-02T04:15:36.951Z,32.80
2019-02-02T04:18:05.829Z,30.17
2019-02-02T04:20:34.698Z,30.03
2019-02-02T04:23:03.656Z,33.20
2019-02-02T04:25:32.584Z,32.57
2019-02-02T04:28:01.484Z,28.67
2019-02-02T04:30:30.734Z,30.57
2019-02-02T04:32:59.612Z,27.27
2019-02-02T04:35:28.396Z,31.45
2019-02-02T04:37:57.208Z,26.03
2019-02-02T04:40:26.065Z,32.60
2019-02-02T04:42:55.056Z,30.20
2019-02-02T04:45:24.084Z,28.17
2019-02-02T04:47:53.184Z,28.37
2019-02-02T04:50:22.302Z,23.50
2019-02-02T04:52:51.496Z,25.50
2019-02-02T04:55:20.982Z,24.53
2019-02-02T04:57:50.077Z,25.57
2019-02-02T05:00:24.101Z,24.97
2019-02-02T05:02:53.046Z,24.50
2019-02-02T05:05:22.097Z,29.07
2019-02-02T05:07:51.036Z,29.33
2019-02-02T05:10:21.182Z,30.27
2019-02-02T05:12:50.476Z,30.50
2019-02-02T05:15:19.431Z,28.27
2019-02-02T05:17:48.882Z,29.10
2019-02-02T05:20:19.006Z,29.48
2019-02-02T05:22:48.744Z,31.68
2019-02-02T05:25:17.801Z,27.17
2019-02-02T05:27:46.757Z,29.52
2019-02-02T05:30:18.795Z,29.97
2019-02-02T05:32:47.756Z,26.90
2019-02-02T05:35:16.684Z,25.60
2019-02-02T05:37:45.546Z,28.33
2019-02-02T05:40:15.950Z,28.90
2019-02-02T05:42:44.912Z,26.03
2019-02-02T05:45:15.603Z,28.20
2019-02-02T05:47:44.585Z,26.70
2019-02-02T05:50:15.302Z,27.20
2019-02-02T05:52:44.248Z,22.63
2019-02-02T05:55:14.077Z,25.50
2019-02-02T05:57:42.940Z,25.00
2019-02-02T06:00:16.976Z,26.27
2019-02-02T06:02:46.024Z,25.57
2019-02-02T06:05:14.979Z,25.50
2019-02-02T06:07:43.876Z,25.53
2019-02-02T06:10:14.400Z,25.10
2019-02-02T06:12:43.277Z,26.27
2019-02-02T06:15:12.537Z,25.57
2019-02-02T06:17:41.479Z,23.47
2019-02-02T06:20:11.317Z,21.80
2019-02-02T06:22:40.183Z,32.57
2019-02-02T06:25:10.650Z,31.07
2019-02-02T06:27:39.523Z,29.95
2019-02-02T06:30:11.782Z,28.70
2019-02-02T06:32:40.832Z,27.73
2019-02-02T06:35:11.481Z,27.55
2019-02-02T06:37:40.422Z,32.20
2019-02-02T06:40:10.200Z,28.50
2019-02-02T06:42:39.072Z,30.07
2019-02-02T06:45:11.223Z,23.57
2019-02-02T06:47:40.016Z,19.30
2019-02-02T06:50:11.045Z,14.33
2019-02-02T06:52:39.985Z,15.57
2019-02-02T06:55:09.577Z,16.23
2019-02-02T06:57:38.376Z,12.10
2019-02-02T07:00:16.158Z,11.53
2019-02-02T07:02:40.136Z,13.50
2019-02-02T07:05:09.204Z,11.00
2019-02-02T07:07:38.154Z,13.03
2019-02-02T07:10:08.435Z,19.60
2019-02-02T07:12:37.326Z,13.97
2019-02-02T07:15:08.466Z,13.50
2019-02-02T07:17:37.354Z,11.00
2019-02-02T07:20:08.218Z,11.13
2019-02-02T07:22:37.100Z,11.17
2019-02-02T07:25:06.620Z,10.13
2019-02-02T07:27:35.482Z,12.60
2019-02-02T07:30:06.488Z,13.95
2019-02-02T07:32:35.269Z,12.57
2019-02-02T07:35:04.519Z,16.13
2019-02-02T07:37:33.314Z,14.40
2019-02-02T07:40:02.118Z,13.20
2019-02-02T07:42:30.995Z,13.87
2019-02-02T07:44:59.782Z,10.93
2019-02-02T07:47:28.579Z,10.33
2019-02-02T07:49:57.384Z,13.43
2019-02-02T07:52:26.193Z,12.80
2019-02-02T07:54:55.035Z,9.47
2019-02-02T07:57:23.807Z,10.30
2019-02-02T07:59:53.720Z,11.93
2019-02-02T08:02:22.609Z,11.67
2019-02-02T08:04:51.450Z,10.30
2019-02-02T08:07:20.239Z,12.70
2019-02-02T08:09:49.093Z,10.00
2019-02-02T08:12:19.550Z,13.47
2019-02-02T08:14:48.469Z,11.03
2019-02-02T08:17:17.246Z,13.50
2019-02-02T08:19:46.046Z,15.70
2019-02-02T08:22:14.910Z,15.27
2019-02-02T08:24:43.699Z,14.47
2019-02-02T08:27:12.572Z,15.73
2019-02-02T08:29:41.357Z,18.45
2019-02-02T08:32:10.303Z,16.43
2019-02-02T08:34:39.301Z,16.47
2019-02-02T08:37:08.138Z,16.93
2019-02-02T08:39:37.012Z,14.80
2019-02-02T08:42:05.920Z,13.93
2019-02-02T08:44:34.920Z,12.07
2019-02-02T08:47:04.039Z,10.73
2019-02-02T08:49:33.363Z,10.20
2019-02-02T08:52:02.577Z,10.33
2019-02-02T08:54:31.528Z,11.10
2019-02-02T08:57:00.602Z,10.27
2019-02-02T08:59:29.664Z,12.93
2019-02-02T09:01:58.570Z,14.70
2019-02-02T09:04:27.422Z,14.03
2019-02-02T09:06:56.390Z,13.30
2019-02-02T09:09:26.017Z,12.80
2019-02-02T09:11:54.901Z,14.10
2019-02-02T09:14:23.768Z,16.47
2019-02-02T09:16:52.756Z,12.23
2019-02-02T09:19:21.736Z,16.32
2019-02-02T09:21:50.707Z,15.50
2019-02-02T09:24:19.515Z,13.80
2019-02-02T09:26:48.336Z,18.13
2019-02-02T09:29:17.213Z,17.40
2019-02-02T09:31:46.171Z,14.37
2019-02-02T09:34:14.960Z,17.23
2019-02-02T09:36:43.828Z,19.23
2019-02-02T09:39:12.605Z,16.70
2019-02-02T09:41:41.481Z,15.70
2019-02-02T09:44:10.423Z,16.40
2019-02-02T09:46:39.290Z,14.75
2019-02-02T09:49:08.265Z,17.10
2019-02-02T09:51:37.072Z,14.80
2019-02-02T09:54:09.019Z,15.50
2019-02-02T09:56:36.612Z,15.97
2019-02-02T09:59:05.486Z,16.67
2019-02-02T10:01:34.283Z,16.67
2019-02-02T10:04:03.343Z,14.90
2019-02-02T10:06:32.244Z,15.37
2019-02-02T10:09:01.046Z,16.07
2019-02-02T10:11:29.916Z,16.73
2019-02-02T10:13:58.711Z,14.17
2019-02-02T10:16:27.552Z,15.23
2019-02-02T10:18:56.360Z,14.80
2019-02-02T10:21:25.247Z,16.50
2019-02-02T10:23:54.213Z,15.80
2019-02-02T10:26:23.085Z,16.97
2019-02-02T10:28:51.952Z,15.72
2019-02-02T10:31:20.739Z,17.43
2019-02-02T10:33:49.527Z,16.20
2019-02-02T10:36:20.121Z,11.27
2019-02-02T10:38:48.989Z,13.77
2019-02-02T10:41:17.871Z,16.93
2019-02-02T10:43:46.814Z,20.17
2019-02-02T10:46:15.689Z,17.25
2019-02-02T10:48:44.485Z,15.93
2019-02-02T10:51:13.352Z,15.20
2019-02-02T10:53:42.165Z,16.30
2019-02-02T10:56:11.033Z,14.25
2019-02-02T10:58:39.905Z,16.80
2019-02-02T11:01:08.873Z,18.47
2019-02-02T11:03:37.990Z,16.93
2019-02-02T11:06:07.005Z,14.10
2019-02-02T11:08:35.935Z,14.57
2019-02-02T11:11:05.272Z,11.65
2019-02-02T11:13:34.122Z,16.00
2019-02-02T11:16:03.154Z,14.55
2019-02-02T11:18:32.044Z,15.35
2019-02-02T11:21:01.336Z,15.55
2019-02-02T11:23:30.447Z,16.75
2019-02-02T11:25:59.313Z,12.40
2019-02-02T11:28:28.454Z,12.73
2019-02-02T11:30:57.305Z,12.63
2019-02-02T11:33:26.171Z,12.30
2019-02-02T11:35:55.186Z,15.60
2019-02-02T11:38:24.072Z,16.00
2019-02-02T11:40:52.933Z,14.13
2019-02-02T11:43:21.892Z,13.40
2019-02-02T11:45:50.834Z,13.70
2019-02-02T11:48:19.698Z,11.10
2019-02-02T11:50:48.500Z,14.03
2019-02-02T11:53:17.368Z,12.17
2019-02-02T11:55:46.256Z,13.13
2019-02-02T11:58:15.129Z,12.75
2019-02-02T12:00:44.226Z,14.63
2019-02-02T12:03:13.011Z,14.23
2019-02-02T12:05:41.816Z,12.10
2019-02-02T12:08:10.682Z,12.43
2019-02-02T12:10:39.480Z,16.00
2019-02-02T12:13:08.351Z,11.47
2019-02-02T12:15:37.299Z,13.78
2019-02-02T12:18:07.025Z,13.95
2019-02-02T12:20:36.728Z,14.25
2019-02-02T12:23:05.732Z,14.70
2019-02-02T12:25:34.666Z,13.60
2019-02-02T12:28:04.027Z,13.30
2019-02-02T12:30:34.582Z,12.70
2019-02-02T12:33:03.907Z,15.33
2019-02-02T12:35:32.810Z,14.70
2019-02-02T12:38:01.749Z,13.70
2019-02-02T12:40:30.691Z,12.63
2019-02-02T12:42:59.619Z,11.93
2019-02-02T12:45:34.482Z,14.25
2019-02-02T12:48:03.336Z,11.77
2019-02-02T12:50:32.277Z,13.53
2019-02-02T12:53:00.989Z,11.17
2019-02-02T12:55:29.937Z,11.80
2019-02-02T12:57:58.800Z,13.13
2019-02-02T13:00:27.762Z,12.63
2019-02-02T13:02:56.608Z,10.57
2019-02-02T13:05:25.949Z,12.03
2019-02-02T13:07:54.887Z,10.87
2019-02-02T13:10:25.622Z,12.20
2019-02-02T13:12:54.922Z,11.07
2019-02-02T13:15:24.075Z,11.23
2019-02-02T13:17:53.011Z,11.47
2019-02-02T13:20:21.883Z,10.93
2019-02-02T13:22:50.742Z,11.70
2019-02-02T13:25:20.898Z,10.60
2019-02-02T13:27:49.990Z,10.67
2019-02-02T13:30:30.309Z,12.70
2019-02-02T13:32:59.246Z,14.30
2019-02-02T13:35:28.683Z,12.30
2019-02-02T13:37:57.625Z,11.83
2019-02-02T13:40:26.511Z,11.70
2019-02-02T13:42:55.493Z,13.43
2019-02-02T13:45:24.503Z,10.50
2019-02-02T13:47:53.482Z,11.88
2019-02-02T13:50:22.711Z,12.70
2019-02-02T13:52:52.856Z,11.80
2019-02-02T13:55:21.786Z,13.80
2019-02-02T13:57:50.661Z,12.20
2019-02-02T14:00:21.906Z,9.40
2019-02-02T14:03:01.483Z,8.00
2019-02-02T14:05:21.736Z,10.20
2019-02-02T14:07:50.638Z,9.40
2019-02-02T14:10:21.747Z,11.50
2019-02-02T14:12:50.635Z,11.20
2019-02-02T14:15:19.589Z,8.90
2019-02-02T14:17:48.460Z,10.50
2019-02-02T14:20:17.403Z,10.30
2019-02-02T14:22:46.462Z,11.70
2019-02-02T14:25:15.637Z,11.80
2019-02-02T14:27:44.488Z,9.37
2019-02-02T14:30:18.566Z,11.40
2019-02-02T14:32:47.505Z,20.85
2019-02-02T14:35:17.296Z,18.13
2019-02-02T14:37:46.284Z,18.07
2019-02-02T14:40:16.140Z,20.43
2019-02-02T14:42:45.084Z,12.47
2019-02-02T14:45:16.128Z,10.03
2019-02-02T14:47:45.001Z,11.03
2019-02-02T14:50:18.689Z,10.75
2019-02-02T14:52:46.718Z,12.50
2019-02-02T14:55:20.912Z,12.60
2019-02-02T14:57:49.783Z,12.00
2019-02-02T15:00:20.680Z,11.00
2019-02-02T15:02:49.609Z,19.30
2019-02-02T15:05:20.881Z,11.40
2019-02-02T15:07:49.872Z,12.63
2019-02-02T15:10:19.062Z,14.00
2019-02-02T15:12:48.008Z,11.23
2019-02-02T15:15:17.100Z,12.33
2019-02-02T15:17:46.040Z,14.60
2019-02-02T15:20:18.041Z,15.37
2019-02-02T15:22:46.856Z,13.30
2019-02-02T15:25:15.809Z,13.20
2019-02-02T15:27:44.619Z,15.18
2019-02-02T15:30:15.778Z,14.45
2019-02-02T15:32:44.715Z,12.07
2019-02-02T15:35:14.482Z,14.15
2019-02-02T15:37:44.174Z,15.93
2019-02-02T15:40:14.983Z,9.90
2019-02-02T15:42:44.292Z,11.03
2019-02-02T15:45:14.972Z,13.23
2019-02-02T15:47:44.495Z,14.78
2019-02-02T15:50:14.746Z,10.30
2019-02-02T15:52:44.841Z,14.70
2019-02-02T15:55:16.728Z,10.70
2019-02-02T15:57:45.516Z,13.17
2019-02-02T16:00:25.912Z,8.93
2019-02-02T16:02:54.869Z,13.67
2019-02-02T16:05:24.319Z,12.80
2019-02-02T16:07:53.403Z,12.73
2019-02-02T16:10:24.378Z,13.30
2019-02-02T16:12:53.545Z,11.80
2019-02-02T16:15:22.499Z,12.43
2019-02-02T16:17:51.419Z,12.57
2019-02-02T16:20:22.641Z,11.47
2019-02-02T16:22:51.416Z,13.40
2019-02-02T16:25:20.357Z,14.17
2019-02-02T16:27:49.143Z,13.80
2019-02-02T16:30:20.456Z,15.80
2019-02-02T16:32:49.372Z,14.67
2019-02-02T16:35:18.344Z,15.08
2019-02-02T16:37:47.206Z,12.80
2019-02-02T16:40:21.138Z,12.83
2019-02-02T16:42:53.346Z,14.70
2019-02-02T16:45:25.764Z,14.40
2019-02-02T16:47:55.108Z,14.53
2019-02-02T16:50:24.738Z,14.40
2019-02-02T16:52:53.773Z,8.88
2019-02-02T16:55:22.722Z,12.28
2019-02-02T16:57:51.589Z,13.77
2019-02-02T17:00:25.595Z,16.37
2019-02-02T17:02:54.580Z,14.00
2019-02-02T17:05:23.533Z,15.27
2019-02-02T17:07:52.563Z,17.63
2019-02-02T17:10:23.573Z,17.00
2019-02-02T17:12:52.516Z,15.80
2019-02-02T17:15:21.691Z,15.97
2019-02-02T17:17:50.632Z,20.02
2019-02-02T17:20:22.121Z,22.00
2019-02-02T17:22:51.134Z,19.83
2019-02-02T17:25:22.364Z,16.30
2019-02-02T17:27:50.965Z,17.93
2019-02-02T17:30:21.611Z,20.37
2019-02-02T17:32:51.761Z,20.10
2019-02-02T17:35:20.689Z,19.77
2019-02-02T17:37:49.684Z,16.17
2019-02-02T17:40:20.902Z,14.10
2019-02-02T17:42:49.799Z,12.80
2019-02-02T17:45:19.330Z,15.67
2019-02-02T17:47:48.614Z,16.83
2019-02-02T17:50:21.641Z,16.70
2019-02-02T17:52:50.589Z,16.50
2019-02-02T17:55:19.714Z,17.73
2019-02-02T17:57:48.667Z,16.37
2019-02-02T18:00:26.485Z,18.93
2019-02-02T18:02:55.340Z,19.47
2019-02-02T18:05:24.555Z,22.43
2019-02-02T18:07:53.740Z,21.67
2019-02-02T18:10:22.609Z,20.25
2019-02-02T18:12:51.571Z,16.23
2019-02-02T18:15:20.439Z,17.80
2019-02-02T18:17:49.180Z,18.67
2019-02-02T18:20:18.208Z,17.97
2019-02-02T18:22:47.168Z,18.27
2019-02-02T18:25:16.142Z,19.80
2019-02-02T18:27:45.489Z,19.40
2019-02-02T18:30:16.896Z,20.67
2019-02-02T18:32:45.841Z,18.87
2019-02-02T18:35:15.381Z,20.17
2019-02-02T18:37:44.532Z,18.00
2019-02-02T18:40:15.194Z,18.23
2019-02-02T18:42:44.490Z,15.37
2019-02-02T18:45:16.653Z,18.80
2019-02-02T18:47:45.530Z,17.17
2019-02-02T18:50:15.417Z,24.33
2019-02-02T18:52:44.616Z,19.73
2019-02-02T18:55:19.245Z,20.90
2019-02-02T18:57:49.175Z,18.07
2019-02-02T19:00:19.385Z,18.48
2019-02-02T19:02:50.129Z,20.60
2019-02-02T19:05:19.367Z,19.52
2019-02-02T19:07:48.244Z,20.10
2019-02-02T19:10:23.033Z,20.00
2019-02-02T19:12:51.833Z,19.87
2019-02-02T19:15:20.874Z,24.67
2019-02-02T19:17:49.874Z,28.17
2019-02-02T19:20:20.819Z,27.48
2019-02-02T19:22:50.218Z,21.80
2019-02-02T19:25:20.229Z,24.12
2019-02-02T19:27:50.086Z,21.97
2019-02-02T19:30:25.197Z,21.97
2019-02-02T19:32:54.198Z,23.80
2019-02-02T19:35:23.324Z,22.58
2019-02-02T19:37:52.269Z,21.77
2019-02-02T19:40:21.215Z,20.50
2019-02-02T19:42:50.533Z,20.00
2019-02-02T19:45:21.135Z,23.37
2019-02-02T19:47:50.581Z,20.43
2019-02-02T19:50:22.103Z,21.12
2019-02-02T19:52:50.899Z,24.37
2019-02-02T19:55:20.922Z,23.10
2019-02-02T19:57:51.248Z,24.15
2019-02-02T20:00:26.056Z,21.10
2019-02-02T20:02:55.464Z,21.23
2019-02-02T20:05:28.547Z,23.37
2019-02-02T20:07:55.302Z,23.20
2019-02-02T20:10:24.180Z,23.98
2019-02-02T20:12:53.376Z,27.63
2019-02-02T20:15:23.824Z,26.68
2019-02-02T20:17:52.696Z,23.83
2019-02-02T20:20:23.246Z,25.30
2019-02-02T20:22:52.376Z,23.47
2019-02-02T20:25:21.742Z,22.50
2019-02-02T20:27:50.786Z,21.68
2019-02-02T20:30:21.489Z,24.43
2019-02-02T20:32:50.354Z,21.40
2019-02-02T20:35:19.334Z,24.40
2019-02-02T20:37:48.228Z,24.43
2019-02-02T20:40:18.976Z,23.90
2019-02-02T20:42:47.921Z,28.30
2019-02-02T20:45:22.383Z,23.57
2019-02-02T20:47:51.250Z,22.27
2019-02-02T20:50:20.209Z,20.43
2019-02-02T20:52:49.006Z,21.07
2019-02-02T20:55:20.366Z,24.73
2019-02-02T20:57:49.783Z,22.77
2019-02-02T21:00:20.915Z,21.47
2019-02-02T21:02:50.068Z,23.83
2019-02-02T21:05:19.024Z,25.10
2019-02-02T21:07:47.817Z,25.77
2019-02-02T21:10:18.670Z,22.60
2019-02-02T21:12:47.635Z,26.40
2019-02-02T21:15:16.634Z,24.70
2019-02-02T21:17:45.756Z,25.80
2019-02-02T21:20:17.066Z,30.33
2019-02-02T21:22:46.008Z,27.58
2019-02-02T21:25:15.470Z,30.80
2019-02-02T21:27:44.270Z,26.80
2019-02-02T21:30:19.147Z,29.20
2019-02-02T21:32:48.097Z,29.80
2019-02-02T21:35:17.059Z,30.43
2019-02-02T21:37:46.521Z,30.77
2019-02-02T21:40:17.199Z,30.97
2019-02-02T21:42:46.170Z,29.47
2019-02-02T21:45:15.685Z,29.00
2019-02-02T21:47:44.539Z,24.40
2019-02-02T21:50:16.603Z,27.67
2019-02-02T21:52:45.652Z,31.80
2019-02-02T21:55:16.725Z,30.93
2019-02-02T21:57:45.823Z,29.87
2019-02-02T22:02:38.686Z,28.62
2019-02-02T22:05:07.641Z,25.53
2019-02-02T22:07:36.583Z,26.27
2019-02-02T22:10:07.186Z,25.33
2019-02-02T22:12:36.200Z,28.57
2019-02-02T22:15:06.852Z,26.60
2019-02-02T22:17:35.871Z,25.90
2019-02-02T22:20:06.276Z,24.97
2019-02-02T22:22:35.085Z,27.50
2019-02-02T22:25:06.657Z,26.33
2019-02-02T22:27:35.527Z,26.37
2019-02-02T22:30:06.118Z,27.07
2019-02-02T22:32:34.907Z,27.47
2019-02-02T22:35:04.007Z,26.68
2019-02-02T22:37:32.800Z,25.40
2019-02-02T22:40:01.869Z,23.90
2019-02-02T22:42:31.186Z,25.47
2019-02-02T22:45:00.013Z,29.05
2019-02-02T22:47:28.952Z,27.10
2019-02-02T22:49:57.763Z,26.50
2019-02-02T22:52:26.560Z,27.30
2019-02-02T22:54:55.545Z,22.47
2019-02-02T22:57:24.346Z,27.87
2019-02-02T22:59:53.228Z,28.67
2019-02-02T23:02:23.062Z,28.87
2019-02-02T23:05:10.392Z,27.83
2019-02-02T23:08:26.354Z,27.30
2019-02-02T23:11:25.683Z,26.27
2019-02-02T23:14:25.675Z,25.40
2019-02-02T23:16:54.611Z,19.67
2019-02-02T23:19:23.472Z,24.95
2019-02-02T23:21:52.358Z,26.13
2019-02-02T23:24:21.210Z,24.90
2019-02-02T23:26:50.578Z,27.30
2019-02-02T23:29:19.799Z,25.63
2019-02-02T23:31:48.853Z,27.00
2019-02-02T23:34:17.943Z,25.87
2019-02-02T23:36:51.809Z,24.83
2019-02-02T23:39:17.563Z,22.23
2019-02-02T23:41:46.368Z,23.73
2019-02-02T23:44:15.343Z,27.00
2019-02-02T23:46:44.142Z,24.07
2019-02-02T23:49:12.938Z,22.87
2019-02-02T23:51:41.736Z,22.60
2019-02-02T23:54:10.994Z,25.50
2019-02-02T23:56:39.826Z,22.60
2019-02-02T23:59:08.620Z,23.60
